HGLO2: Hugo Lake

Data processed at Fri Apr 17 23:06:48 2015 Central Daylight Time


All information presented herein is the property of the government of the United States of America and may be revised or deleted at any time without prior notice.
Dissemination of this information without the expressed written consent of the Public Affairs Office, Tulsa District U.S. Army Corps of Engineers is strictly prohibited.
These data are gathered electronically and, as presented, have not undergone any form of quality control. These data are not guaranteed to be valid or correct.
Go to home page.
Go to station list.
Go to station map.

Upstream stations:

Downstream station: Previous Day
Next Day
Current Day

Display graphics.
Display DCP transmissions.


    
    SHEF ID:       HGLO2     Hugo Lake
    STATION TYPE:  RESERVOIR
    Flood Control Pool:  Bottom =  406.00, Top =  437.50 (SCP elev. for 18Apr2015)
    local start_hour = 1
                   PRECIP PRECIP(2) ELEVATION   STORAGE    INFLOW   RELEASE  AIR-TEMP  WIND-DIRWIND-SPEED REL-HUMID SOLAR-RAD   VOLTAGE  BAT-LOAD
                   INCHES    INCHES      FEET      ACFT       CFS       CFS     DEG-F   DEGREES       MPH   PERCENT      W/M2     VOLTS     VOLTS
                     GOES      GOES      GOES      GOES  COMPRESQ  COMPRESQ      GOES      GOES      GOES      GOES      GOES      GOES      GOES
       (Cen)
    04/17 01:00      0.00      ----    410.28    226520      7916      9982     67.89    188.70      3.10     74.41      0.00     13.57     13.24
    04/17 02:00      0.00      ----    410.27    226349      7500      9980     65.48     39.60      0.75     80.76      0.00     13.68     13.24
    04/17 03:00      0.00      ----    410.26    226179      7498      9978     63.84    109.60      3.10     85.70      0.00     13.68     13.24
    04/17 04:00      0.00      ----    410.24    225837      7495      9975     61.43    134.70      3.07     92.67      0.00     13.68     13.24
    04/17 05:00      0.00      ----    410.23    225667      7493      9972     60.87    148.80      2.77     92.78      0.00     13.67     13.24
    04/17 06:00      0.00      ----    410.22    225496      7903      9970     59.77    204.80      2.10     94.74      0.00     13.67     13.24
    04/17 07:00      0.00      ----    410.21    225325      7902      9968     61.41    260.20      1.08     93.21      2.00     13.67     13.24
    04/17 08:00      0.00      ----    410.21    225325      7486      9967     63.07    343.30      5.04     91.51     29.00     13.66     13.24
    04/17 09:00      0.00      ----    410.19    224983      7484      9965     64.38    342.20      3.50     88.63    124.00     13.67     11.83
    04/17 10:00      0.00      ----    410.17    224642      7896      9961     67.24    332.60      7.24     84.73    319.00     13.67     13.24
    04/17 11:00      0.00      ----    410.16    224471      6653      9958     70.86    334.90      5.68     77.65    337.00     13.67     13.24
    04/17 12:00      0.00      ----    410.16    224471      7062      9957     72.19    345.30      7.09     80.34    595.00     13.67     13.24
    04/17 13:00      0.00      ----    410.13    223959      6646      9954     75.15    336.20      7.73     69.77    933.00     13.67     13.24
    04/17 14:00      0.00      ----    410.12    223788      6230      9950     77.25    331.10      4.93     69.96    831.00     13.67     13.24
    04/17 15:00      0.00      ----    410.09    223275      5398      9946     80.31    133.20      3.03     56.59    779.00     13.68     13.24
    04/17 16:00      0.00      ----    410.07    222934      6222      9941     80.42    144.90      4.91     54.51    500.00     13.69     13.24
    04/17 17:00      0.00      ----    410.05    222592      6218      9937     80.20    172.50      5.95     58.54    470.00     13.69     13.24
    04/17 18:00      0.00      ----    410.04    222421      6628      9934     79.21    168.60      5.51     57.75    219.00     13.69     13.24
    04/17 19:00      0.00      ----    410.03    222250      6642      9932     77.90    160.20      2.39     65.19     56.00     13.70     11.72
    04/17 20:00      0.00      ----    410.01    221909      7071      9929     74.93    152.70      1.91     70.63      4.00     13.69     13.30
    04/17 21:00      0.00      ----    409.99    221574      6672      9925     70.75    159.20      1.78     88.82      0.00     13.69     13.24
    04/17 22:00      0.00      ----    409.98    221411      7103      9921     72.30    141.30      2.37     79.72      0.00     13.69     13.30
    04/17 23:00      0.00      ----    409.96    221084      ----      ----     69.55    181.80      2.58     88.94      0.00     13.69     13.24
    04/18 00:00      ----      ----      ----      ----      ----      ----      ----      ----      ----      ----      ----      ----      ----